Time;durP1;ratioP1;P1;durP2;ratioP2;P2;SDS_P1;SDS_P2;PMS_P1;PMS_P2;Temp;Humidity;BMP_temperature;BMP_pressure;BME280_temperature;BME280_humidity;BME280_pressure;Samples;Min_cycle;Max_cycle;Signal;HPM_P1;HPM_P2
2023/09/28 00:02:58;;;;;;;1.55;0.80;;;18.50;99.90;;;;;;4995470;28;20045;-75
2023/09/28 00:05:25;;;;;;;3.70;1.10;;;18.50;99.90;;;;;;4994942;28;20484;-75
2023/09/28 00:07:52;;;;;;;1.65;0.88;;;18.50;99.90;;;;;;4978592;28;20250;-74
2023/09/28 00:10:18;;;;;;;1.45;1.00;;;18.50;99.90;;;;;;4998690;28;20041;-75
2023/09/28 00:12:48;;;;;;;2.03;1.08;;;18.60;99.90;;;;;;4997939;28;20030;-75
2023/09/28 00:15:16;;;;;;;1.55;0.85;;;18.50;99.90;;;;;;4998141;28;20038;-75
2023/09/28 00:17:44;;;;;;;2.13;0.90;;;18.50;99.90;;;;;;4979425;28;20499;-75
2023/09/28 00:20:19;;;;;;;1.73;0.88;;;18.50;99.90;;;;;;4996643;28;20388;-75
2023/09/28 00:22:47;;;;;;;1.88;0.85;;;18.50;99.90;;;;;;4964300;28;20029;-75
2023/09/28 00:25:16;;;;;;;2.17;1.10;;;18.40;99.90;;;;;;4995552;28;20393;-75
2023/09/28 00:27:43;;;;;;;1.80;1.00;;;18.30;99.90;;;;;;4979670;28;20515;-74
2023/09/28 00:30:18;;;;;;;1.45;0.95;;;18.30;99.90;;;;;;4981591;28;20042;-75
2023/09/28 00:32:49;;;;;;;1.92;0.88;;;18.30;99.90;;;;;;5016768;28;20040;-75
2023/09/28 00:35:16;;;;;;;1.95;1.45;;;18.20;99.90;;;;;;4983285;28;20523;-75
2023/09/28 00:37:43;;;;;;;2.25;0.82;;;18.20;99.90;;;;;;4999570;28;20129;-74
2023/09/28 00:40:31;;;;;;;2.08;0.88;;;18.20;99.90;;;;;;5002086;28;20473;-75
2023/09/28 00:42:59;;;;;;;1.55;0.85;;;18.10;99.90;;;;;;4983897;28;20417;-75
2023/09/28 00:45:27;;;;;;;1.80;1.13;;;18.00;99.90;;;;;;5001184;28;20037;-74
2023/09/28 00:48:02;;;;;;;1.30;0.73;;;18.00;99.90;;;;;;5016428;28;20037;-75
2023/09/28 00:50:32;;;;;;;7.07;1.08;;;17.90;99.90;;;;;;4983991;28;20045;-75
2023/09/28 00:53:08;;;;;;;4.35;1.10;;;17.90;99.90;;;;;;4968243;28;20041;-75
2023/09/28 00:55:36;;;;;;;1.63;0.80;;;17.90;99.90;;;;;;4984687;28;20041;-75
2023/09/28 00:58:05;;;;;;;2.28;1.08;;;17.80;99.90;;;;;;5002146;28;20025;-75
2023/09/28 01:00:33;;;;;;;1.48;0.73;;;17.80;99.90;;;;;;5000673;28;20030;-76
2023/09/28 01:03:02;;;;;;;3.67;1.23;;;17.70;99.90;;;;;;4971328;28;20324;-75
2023/09/28 01:05:34;;;;;;;2.00;0.93;;;17.70;99.90;;;;;;4983660;28;20254;-75
2023/09/28 01:08:14;;;;;;;2.57;1.30;;;17.60;99.90;;;;;;4983748;28;20144;-75
2023/09/28 01:10:41;;;;;;;2.13;1.00;;;17.60;99.90;;;;;;4983558;28;21687;-75
2023/09/28 01:13:12;;;;;;;1.83;0.80;;;17.50;99.90;;;;;;4983319;28;20034;-75
2023/09/28 01:15:39;;;;;;;1.75;0.95;;;17.50;99.90;;;;;;4966531;28;20042;-75
2023/09/28 01:18:10;;;;;;;3.75;0.85;;;17.50;99.90;;;;;;4983079;28;20048;-75
2023/09/28 01:20:37;;;;;;;1.85;0.80;;;17.40;99.90;;;;;;4999403;28;20476;-75
2023/09/28 01:23:05;;;;;;;2.00;0.90;;;17.40;99.90;;;;;;4999545;28;20042;-75
2023/09/28 01:25:33;;;;;;;2.45;0.88;;;17.30;99.90;;;;;;4998873;28;20042;-75
2023/09/28 01:28:00;;;;;;;2.55;1.13;;;17.30;99.90;;;;;;4998004;28;20046;-74
2023/09/28 01:30:27;;;;;;;2.35;1.05;;;17.30;99.90;;;;;;4966222;28;20030;-75
2023/09/28 01:32:54;;;;;;;2.67;1.00;;;17.20;99.90;;;;;;4998576;28;20519;-75
2023/09/28 01:35:20;;;;;;;1.60;0.95;;;17.20;99.90;;;;;;4998548;28;20037;-76
2023/09/28 01:38:17;;;;;;;4.53;0.93;;;17.20;99.90;;;;;;5000379;28;20037;-75
2023/09/28 01:40:46;;;;;;;1.48;0.80;;;17.10;99.90;;;;;;4982115;28;20034;-75
2023/09/28 01:43:13;;;;;;;1.60;0.80;;;17.10;99.90;;;;;;4998089;28;20037;-74
2023/09/28 01:45:39;;;;;;;1.38;0.77;;;17.10;99.90;;;;;;4998876;28;20405;-75
2023/09/28 01:48:06;;;;;;;1.73;0.77;;;17.00;99.90;;;;;;4997719;28;20485;-76
2023/09/28 01:50:33;;;;;;;1.45;0.82;;;17.00;99.90;;;;;;4982362;28;20037;-75
2023/09/28 01:52:59;;;;;;;1.67;0.85;;;17.00;99.90;;;;;;5015359;28;20033;-74
2023/09/28 01:55:26;;;;;;;1.63;0.80;;;16.90;99.90;;;;;;4965334;28;20042;-74
2023/09/28 01:57:52;;;;;;;2.15;0.70;;;16.90;99.90;;;;;;5014535;28;20038;-75
2023/09/28 02:00:21;;;;;;;1.60;0.60;;;16.90;99.90;;;;;;4966967;28;20473;-75
2023/09/28 02:02:50;;;;;;;2.17;0.88;;;16.90;99.90;;;;;;4984119;28;20515;-76
2023/09/28 02:05:18;;;;;;;1.35;0.90;;;16.90;99.90;;;;;;4982026;28;20033;-73
2023/09/28 02:07:45;;;;;;;1.50;0.70;;;16.80;99.90;;;;;;4981336;28;20528;-75
2023/09/28 02:10:12;;;;;;;2.97;0.90;;;16.80;99.90;;;;;;4983872;28;20428;-75
2023/09/28 02:12:40;;;;;;;1.45;0.77;;;16.80;99.90;;;;;;4982285;28;20042;-75
2023/09/28 02:15:08;;;;;;;1.30;0.70;;;16.70;99.90;;;;;;4981766;28;20511;-74
2023/09/28 02:17:38;;;;;;;1.48;0.60;;;16.70;99.90;;;;;;4963581;28;20041;-75
2023/09/28 02:20:09;;;;;;;3.35;0.70;;;16.70;99.90;;;;;;4983879;28;20017;-75
2023/09/28 02:22:46;;;;;;;1.58;0.82;;;16.70;99.90;;;;;;4980663;28;20041;-75
2023/09/28 02:25:19;;;;;;;1.55;0.88;;;16.60;99.90;;;;;;5011236;28;20049;-75
2023/09/28 02:27:47;;;;;;;1.40;0.80;;;16.60;99.90;;;;;;4996507;28;20022;-74
2023/09/28 02:30:22;;;;;;;2.35;1.17;;;16.60;99.90;;;;;;4998993;28;20053;-75
2023/09/28 02:32:50;;;;;;;2.00;1.10;;;16.50;99.90;;;;;;4995111;28;20030;-74
2023/09/28 02:35:17;;;;;;;1.40;0.93;;;16.50;99.90;;;;;;5012988;28;20034;-75
2023/09/28 02:37:45;;;;;;;1.63;0.70;;;16.50;99.90;;;;;;5012372;28;20048;-73
2023/09/28 02:40:13;;;;;;;1.85;1.23;;;16.50;99.90;;;;;;4998005;28;20029;-75
2023/09/28 02:42:41;;;;;;;1.70;0.80;;;16.40;99.90;;;;;;4982197;28;20493;-74
2023/09/28 02:45:12;;;;;;;1.67;0.88;;;16.40;99.90;;;;;;4998489;28;20041;-75
2023/09/28 02:47:41;;;;;;;1.70;0.80;;;16.40;99.90;;;;;;4981268;28;20055;-75
2023/09/28 02:50:11;;;;;;;2.33;1.00;;;16.30;99.90;;;;;;4981121;28;20030;-74
2023/09/28 02:52:39;;;;;;;1.75;1.08;;;16.30;99.90;;;;;;4996782;28;20041;-74
2023/09/28 02:55:07;;;;;;;2.05;1.00;;;16.30;99.90;;;;;;4979201;28;20058;-75
2023/09/28 02:57:35;;;;;;;1.40;0.60;;;16.30;99.90;;;;;;4974074;28;20037;-74
2023/09/28 03:00:11;;;;;;;2.05;1.05;;;16.30;99.90;;;;;;4997203;28;20042;-75
2023/09/28 03:02:38;;;;;;;1.58;0.82;;;16.20;99.90;;;;;;4982087;28;20581;-74
2023/09/28 03:05:07;;;;;;;1.63;0.80;;;16.20;99.90;;;;;;4996204;28;20045;-75
2023/09/28 03:07:34;;;;;;;2.47;1.00;;;16.20;99.90;;;;;;4996165;28;20412;-74
2023/09/28 03:10:04;;;;;;;1.42;0.75;;;16.20;99.90;;;;;;5013088;28;20591;-74
2023/09/28 03:12:33;;;;;;;1.60;0.80;;;16.20;99.90;;;;;;4996678;28;20049;-75
2023/09/28 03:14:59;;;;;;;2.70;1.45;;;16.10;99.90;;;;;;4979707;28;20041;-75
2023/09/28 03:17:26;;;;;;;2.78;1.05;;;16.10;99.90;;;;;;4954810;28;20220;-75
2023/09/28 03:19:53;;;;;;;2.47;1.00;;;16.10;99.90;;;;;;4996878;28;20037;-74
2023/09/28 03:22:20;;;;;;;1.42;0.80;;;16.10;99.90;;;;;;5012253;28;20030;-75
2023/09/28 03:24:47;;;;;;;1.80;1.10;;;16.10;99.90;;;;;;4979792;28;20026;-75
2023/09/28 03:27:14;;;;;;;2.78;0.95;;;16.10;99.90;;;;;;4962258;28;20046;-74
2023/09/28 03:29:42;;;;;;;2.47;0.90;;;16.10;99.90;;;;;;5010988;28;20034;-75
2023/09/28 03:32:08;;;;;;;2.13;0.90;;;16.10;99.90;;;;;;4996822;28;20049;-75
2023/09/28 03:34:36;;;;;;;1.33;0.80;;;16.10;99.90;;;;;;5010289;28;20053;-73
2023/09/28 03:37:03;;;;;;;2.28;1.02;;;16.10;99.90;;;;;;4966282;28;20543;-75
2023/09/28 03:39:30;;;;;;;1.88;0.95;;;16.00;99.90;;;;;;4980560;28;20044;-75
2023/09/28 03:41:56;;;;;;;1.70;0.80;;;16.00;99.90;;;;;;4995332;28;20384;-75
2023/09/28 03:44:23;;;;;;;1.92;1.35;;;15.90;99.90;;;;;;4979327;28;20045;-75
2023/09/28 03:46:49;;;;;;;1.67;0.98;;;15.90;99.90;;;;;;4980298;28;20045;-75
2023/09/28 03:49:15;;;;;;;2.15;1.35;;;15.90;99.90;;;;;;4996162;28;20065;-74
2023/09/28 03:51:42;;;;;;;1.90;1.02;;;15.90;99.90;;;;;;4996058;28;20038;-74
2023/09/28 03:54:08;;;;;;;1.90;0.95;;;15.90;99.90;;;;;;4980021;28;20516;-75
2023/09/28 03:56:35;;;;;;;1.40;0.82;;;15.90;99.90;;;;;;4995425;28;20064;-75
2023/09/28 03:59:01;;;;;;;2.72;1.40;;;15.90;99.90;;;;;;4981007;28;20049;-75
2023/09/28 04:01:29;;;;;;;2.38;1.63;;;15.80;99.90;;;;;;4980141;28;20460;-74
2023/09/28 04:03:56;;;;;;;2.08;0.90;;;15.80;99.90;;;;;;4994871;28;20033;-75
2023/09/28 04:06:22;;;;;;;2.63;1.20;;;15.80;99.90;;;;;;4994666;28;20064;-75
2023/09/28 04:08:49;;;;;;;2.35;1.33;;;15.80;99.90;;;;;;4999354;28;20076;-75
2023/09/28 04:11:15;;;;;;;2.05;1.20;;;15.80;99.90;;;;;;4965037;28;20049;-74
2023/09/28 04:13:42;;;;;;;3.17;1.00;;;15.80;99.90;;;;;;4998456;28;20030;-75
2023/09/28 04:16:08;;;;;;;2.28;1.17;;;15.80;99.90;;;;;;4995318;28;20033;-75
2023/09/28 04:18:35;;;;;;;2.17;1.40;;;15.70;99.90;;;;;;4980364;28;20026;-75
2023/09/28 04:21:01;;;;;;;1.90;1.10;;;15.70;99.90;;;;;;4996712;28;20041;-75
2023/09/28 04:23:28;;;;;;;2.45;1.08;;;15.70;99.90;;;;;;4966856;28;20488;-74
2023/09/28 04:25:54;;;;;;;2.67;1.35;;;15.70;99.90;;;;;;4978916;28;20049;-75
2023/09/28 04:28:21;;;;;;;3.08;1.23;;;15.70;99.90;;;;;;4999392;28;20033;-75
2023/09/28 04:30:47;;;;;;;2.35;1.20;;;15.70;99.90;;;;;;4978175;28;20388;-75
2023/09/28 04:33:14;;;;;;;2.90;1.52;;;15.70;99.90;;;;;;4995515;28;20030;-74
2023/09/28 04:35:41;;;;;;;2.33;1.60;;;15.60;99.90;;;;;;4979275;28;20262;-75
2023/09/28 04:38:08;;;;;;;2.45;1.40;;;15.60;99.90;;;;;;4995295;28;20038;-74
2023/09/28 04:40:36;;;;;;;3.20;1.48;;;15.60;99.90;;;;;;4994337;28;20038;-74
2023/09/28 04:43:03;;;;;;;2.97;1.60;;;15.60;99.90;;;;;;4995028;28;20034;-75
2023/09/28 04:45:29;;;;;;;2.70;1.25;;;15.60;99.90;;;;;;4978679;28;20340;-75
2023/09/28 04:47:56;;;;;;;2.47;1.30;;;15.50;99.90;;;;;;4995378;28;20030;-77
2023/09/28 04:50:22;;;;;;;2.47;1.55;;;15.50;99.90;;;;;;5012280;28;20034;-75
2023/09/28 04:52:49;;;;;;;3.13;1.58;;;15.50;99.90;;;;;;4995551;28;20369;-74
2023/09/28 04:55:15;;;;;;;4.72;1.85;;;15.50;99.90;;;;;;4995582;28;20061;-75
2023/09/28 04:57:41;;;;;;;3.28;2.78;;;15.40;99.90;;;;;;4996260;28;20340;-74
2023/09/28 05:00:15;;;;;;;3.92;2.65;;;15.40;99.90;;;;;;4995279;28;20496;-73
2023/09/28 05:02:47;;;;;;;3.97;2.95;;;15.40;99.90;;;;;;5009999;28;20507;-75
2023/09/28 05:05:14;;;;;;;4.55;3.28;;;15.40;99.90;;;;;;4994270;28;20511;-74
2023/09/28 05:07:42;;;;;;;5.18;3.47;;;15.40;99.90;;;;;;4994414;28;20025;-74
2023/09/28 05:10:09;;;;;;;3.67;2.80;;;15.30;99.90;;;;;;4996023;28;20034;-74
2023/09/28 05:12:35;;;;;;;4.10;2.50;;;15.30;99.90;;;;;;4996486;28;20022;-76
2023/09/28 05:15:02;;;;;;;6.95;3.85;;;15.30;99.90;;;;;;4979831;28;20049;-74
2023/09/28 05:17:28;;;;;;;4.97;2.65;;;15.30;99.90;;;;;;4980317;28;20046;-73
2023/09/28 05:19:55;;;;;;;3.58;2.67;;;15.30;99.90;;;;;;5001184;28;20053;-75
2023/09/28 05:22:21;;;;;;;3.28;2.30;;;15.30;99.90;;;;;;4966463;28;20045;-75
2023/09/28 05:24:48;;;;;;;3.67;2.63;;;15.30;99.90;;;;;;4983205;28;20057;-73
2023/09/28 05:27:14;;;;;;;4.05;2.88;;;15.20;99.90;;;;;;5000795;28;20406;-74
2023/09/28 05:29:40;;;;;;;3.65;2.92;;;15.30;99.90;;;;;;4999521;28;20037;-72
2023/09/28 05:32:08;;;;;;;4.97;3.78;;;15.30;99.90;;;;;;4966723;28;20053;-72
2023/09/28 05:34:35;;;;;;;4.72;3.53;;;15.30;99.90;;;;;;5013184;28;20043;-73
2023/09/28 05:37:01;;;;;;;4.85;2.85;;;15.30;99.90;;;;;;4981092;28;20034;-73
2023/09/28 05:39:27;;;;;;;5.22;3.15;;;15.40;99.90;;;;;;4982370;28;20161;-75
2023/09/28 05:41:54;;;;;;;4.20;3.28;;;15.40;99.90;;;;;;4965058;28;20038;-73
2023/09/28 05:44:20;;;;;;;3.95;3.10;;;15.40;99.90;;;;;;4997413;28;20341;-73
2023/09/28 05:46:46;;;;;;;4.40;2.97;;;15.40;99.90;;;;;;4998191;28;20034;-74
2023/09/28 05:49:13;;;;;;;5.78;3.72;;;15.40;99.90;;;;;;4994157;28;20362;-74
2023/09/28 05:51:39;;;;;;;5.60;3.85;;;15.40;99.90;;;;;;4981198;28;22917;-74
2023/09/28 05:54:06;;;;;;;4.88;3.28;;;15.40;99.90;;;;;;4997109;28;20038;-75
2023/09/28 05:56:32;;;;;;;5.18;4.10;;;15.40;99.90;;;;;;4997177;28;20488;-75
2023/09/28 05:58:59;;;;;;;10.02;4.15;;;15.50;99.90;;;;;;4996916;28;20038;-75
2023/09/28 06:01:29;;;;;;;4.45;3.22;;;15.50;99.90;;;;;;4999584;28;20034;-75
2023/09/28 06:03:56;;;;;;;7.00;4.30;;;15.50;99.90;;;;;;5001578;28;20030;-73
2023/09/28 06:06:23;;;;;;;4.78;3.60;;;15.50;99.90;;;;;;4997987;28;21162;-74
2023/09/28 06:08:52;;;;;;;4.50;3.50;;;15.50;99.90;;;;;;4981437;28;20033;-77
2023/09/28 06:11:19;;;;;;;4.07;2.60;;;15.60;99.90;;;;;;4997886;28;20037;-74
2023/09/28 06:13:46;;;;;;;4.18;2.90;;;15.60;99.90;;;;;;4998323;28;20038;-74
2023/09/28 06:16:14;;;;;;;4.40;2.78;;;15.60;99.90;;;;;;5013668;28;20042;-73
2023/09/28 06:18:42;;;;;;;5.30;2.70;;;15.60;99.90;;;;;;4997819;28;20469;-74
2023/09/28 06:21:08;;;;;;;4.00;3.03;;;15.70;99.90;;;;;;5014126;28;20488;-75
2023/09/28 06:23:35;;;;;;;5.82;2.90;;;15.70;99.90;;;;;;4981369;28;20038;-73
2023/09/28 06:26:02;;;;;;;4.15;3.20;;;15.80;99.90;;;;;;4997680;28;20499;-74
2023/09/28 06:28:28;;;;;;;4.22;2.70;;;15.80;99.90;;;;;;4995545;28;20045;-75
2023/09/28 06:30:56;;;;;;;6.35;3.55;;;15.80;99.90;;;;;;4997650;28;20366;-74
2023/09/28 06:33:23;;;;;;;5.07;3.28;;;15.90;99.90;;;;;;4998373;28;20042;-74
2023/09/28 06:35:50;;;;;;;7.45;3.78;;;16.00;99.90;;;;;;4998039;28;20034;-74
2023/09/28 06:38:17;;;;;;;4.95;3.00;;;16.00;99.90;;;;;;4981839;28;20472;-74
2023/09/28 06:40:50;;;;;;;4.95;2.95;;;16.10;99.90;;;;;;4986288;28;20037;-74
2023/09/28 06:43:16;;;;;;;5.82;2.67;;;16.20;99.90;;;;;;4981307;28;20064;-75
2023/09/28 06:45:43;;;;;;;5.75;2.97;;;16.20;99.90;;;;;;4980731;28;20129;-74
2023/09/28 06:48:09;;;;;;;5.88;2.72;;;16.30;99.90;;;;;;4997478;28;20026;-74
2023/09/28 06:50:39;;;;;;;4.20;2.38;;;16.30;99.90;;;;;;4968092;28;20412;-73
2023/09/28 06:53:06;;;;;;;6.30;2.50;;;16.40;99.90;;;;;;4980955;28;20476;-74
2023/09/28 06:55:33;;;;;;;4.45;2.60;;;16.50;99.90;;;;;;4995924;28;20500;-73
2023/09/28 06:58:00;;;;;;;3.30;2.30;;;16.60;99.90;;;;;;4996922;28;20061;-74
2023/09/28 07:00:26;;;;;;;6.80;2.97;;;16.60;99.90;;;;;;4997167;28;20056;-74
2023/09/28 07:02:55;;;;;;;4.53;2.22;;;16.70;99.90;;;;;;4996279;28;20034;-75
2023/09/28 07:05:22;;;;;;;6.20;2.80;;;16.80;99.90;;;;;;4996335;28;20042;-74
2023/09/28 07:07:49;;;;;;;7.78;2.70;;;16.80;99.90;;;;;;4995893;28;20034;-74
2023/09/28 07:10:15;;;;;;;6.82;2.95;;;16.90;99.90;;;;;;4997766;28;20060;-74
2023/09/28 07:12:42;;;;;;;9.25;3.05;;;17.00;99.90;;;;;;4981392;28;20042;-74
2023/09/28 07:15:09;;;;;;;5.78;2.47;;;17.00;99.90;;;;;;4995572;28;20038;-74
2023/09/28 07:17:36;;;;;;;8.98;2.30;;;17.10;99.90;;;;;;4979516;28;20034;-74
2023/09/28 07:20:03;;;;;;;8.52;2.25;;;17.20;99.90;;;;;;4999406;28;20037;-74
2023/09/28 07:22:30;;;;;;;7.88;2.33;;;17.20;99.90;;;;;;4966497;28;20041;-74
2023/09/28 07:24:56;;;;;;;4.78;1.77;;;17.30;99.90;;;;;;4980069;28;20488;-74
2023/09/28 07:27:23;;;;;;;9.35;2.00;;;17.40;99.90;;;;;;4997043;28;20029;-74
2023/09/28 07:29:50;;;;;;;10.02;3.10;;;17.50;99.90;;;;;;4980942;28;20032;-74
2023/09/28 07:32:16;;;;;;;10.60;2.80;;;17.50;99.90;;;;;;4979803;28;20444;-75
2023/09/28 07:34:43;;;;;;;9.40;2.00;;;17.60;99.90;;;;;;4994933;28;20193;-74
2023/09/28 07:37:09;;;;;;;10.77;2.58;;;17.70;99.90;;;;;;5010413;28;20069;-73
2023/09/28 07:39:35;;;;;;;9.50;2.60;;;17.70;99.90;;;;;;4996700;28;20034;-74
2023/09/28 07:42:07;;;;;;;12.52;2.90;;;17.80;99.90;;;;;;4979905;28;20065;-74
2023/09/28 07:44:34;;;;;;;9.27;1.70;;;17.80;99.90;;;;;;4995713;28;20049;-75
2023/09/28 07:47:00;;;;;;;11.05;2.15;;;18.00;99.90;;;;;;4994883;28;20033;-74
2023/09/28 07:49:27;;;;;;;15.13;2.20;;;18.00;99.90;;;;;;4981047;28;20456;-73
2023/09/28 07:51:55;;;;;;;7.55;2.03;;;18.10;99.90;;;;;;4999079;28;20034;-73
2023/09/28 07:54:21;;;;;;;10.80;2.33;;;18.20;99.90;;;;;;4978969;28;20042;-74
2023/09/28 07:56:48;;;;;;;9.02;1.75;;;18.30;99.90;;;;;;4998555;28;20038;-74
2023/09/28 07:59:15;;;;;;;10.30;1.55;;;18.30;99.90;;;;;;4997554;28;20034;-74
2023/09/28 08:01:42;;;;;;;9.63;1.63;;;18.40;99.90;;;;;;5013426;28;20500;-73
2023/09/28 08:04:08;;;;;;;14.75;2.60;;;18.50;99.90;;;;;;4995895;28;20029;-75
2023/09/28 08:06:35;;;;;;;12.75;2.58;;;18.60;99.90;;;;;;5012254;28;20477;-74
2023/09/28 08:09:02;;;;;;;9.27;1.95;;;18.60;99.90;;;;;;4996195;28;20041;-74
2023/09/28 08:11:30;;;;;;;13.07;2.88;;;18.70;99.90;;;;;;4980922;28;20034;-75
2023/09/28 08:13:56;;;;;;;22.58;3.10;;;18.80;99.90;;;;;;4998509;28;20054;-74
2023/09/28 08:16:22;;;;;;;15.15;2.58;;;18.80;99.90;;;;;;4995818;28;20037;-74
2023/09/28 08:19:08;;;;;;;15.32;2.97;;;18.90;99.90;;;;;;4983009;28;20041;-74
2023/09/28 08:21:37;;;;;;;11.35;2.35;;;18.90;99.90;;;;;;4980296;28;20037;-74
2023/09/28 08:24:07;;;;;;;14.75;2.53;;;18.90;99.90;;;;;;4979994;28;20500;-74
2023/09/28 08:26:35;;;;;;;18.25;3.50;;;19.00;99.90;;;;;;5011132;28;20476;-74
2023/09/28 08:29:03;;;;;;;12.65;2.13;;;19.10;99.90;;;;;;4979645;28;20034;-75
2023/09/28 08:31:33;;;;;;;13.60;2.53;;;19.10;99.90;;;;;;4997784;28;20128;-74
2023/09/28 08:33:59;;;;;;;12.10;2.40;;;19.20;99.90;;;;;;4997832;28;20388;-74
2023/09/28 08:36:30;;;;;;;21.17;3.72;;;19.30;99.90;;;;;;4995431;28;20036;-74
2023/09/28 08:38:57;;;;;;;17.73;2.45;;;19.40;99.90;;;;;;4995785;28;20041;-74
2023/09/28 08:41:51;;;;;;;22.33;3.15;;;19.40;99.90;;;;;;4980633;28;20036;-74
2023/09/28 08:44:23;;;;;;;14.05;2.30;;;19.50;99.90;;;;;;4998525;28;20374;-74
2023/09/28 08:46:54;;;;;;;16.98;2.92;;;19.60;99.90;;;;;;4978349;28;21492;-74
2023/09/28 08:49:21;;;;;;;11.68;2.30;;;19.70;99.90;;;;;;4995695;28;20591;-74
2023/09/28 08:51:50;;;;;;;18.33;2.88;;;19.80;99.90;;;;;;5014599;28;20037;-75
2023/09/28 08:54:18;;;;;;;23.92;4.15;;;20.00;99.90;;;;;;4983870;28;20042;-74
2023/09/28 08:57:03;;;;;;;14.95;3.38;;;20.20;99.90;;;;;;5000872;28;20045;-75
2023/09/28 08:59:30;;;;;;;16.67;2.58;;;20.40;99.90;;;;;;5000233;28;20038;-74
2023/09/28 09:01:57;;;;;;;20.77;3.28;;;20.50;99.90;;;;;;5001037;28;20033;-74
2023/09/28 09:04:24;;;;;;;25.67;3.40;;;20.50;99.90;;;;;;4966689;28;20038;-74
2023/09/28 09:07:10;;;;;;;11.77;2.33;;;20.60;99.90;;;;;;5000116;28;20037;-74
2023/09/28 09:09:40;;;;;;;11.38;2.13;;;20.70;99.90;;;;;;4999645;28;20042;-74
2023/09/28 09:12:10;;;;;;;14.52;3.40;;;20.90;99.90;;;;;;4983176;28;20056;-74
2023/09/28 09:14:37;;;;;;;19.25;4.05;;;21.00;99.90;;;;;;4988583;28;20041;-73
2023/09/28 09:17:04;;;;;;;17.48;3.33;;;21.10;99.90;;;;;;5015568;28;20041;-75
2023/09/28 09:19:31;;;;;;;14.50;2.45;;;21.20;99.90;;;;;;5000168;28;20030;-74
2023/09/28 09:21:58;;;;;;;15.60;2.40;;;21.20;99.90;;;;;;4983441;28;20025;-74
2023/09/28 09:24:25;;;;;;;12.07;2.38;;;21.20;99.90;;;;;;4982409;28;20746;-74
2023/09/28 09:26:56;;;;;;;12.98;2.40;;;21.20;99.90;;;;;;4999121;28;20042;-74
2023/09/28 09:29:23;;;;;;;15.82;2.70;;;21.20;99.90;;;;;;4999976;28;20389;-75
2023/09/28 09:31:51;;;;;;;13.00;2.35;;;21.20;99.90;;;;;;5000310;28;20038;-75
2023/09/28 09:34:19;;;;;;;16.30;2.53;;;21.20;99.90;;;;;;4999101;28;20894;-74
2023/09/28 09:36:55;;;;;;;14.25;3.25;;;21.50;99.90;;;;;;5000480;28;20037;-74
2023/09/28 09:39:40;;;;;;;13.73;2.50;;;21.60;99.90;;;;;;4999817;28;20492;-74
2023/09/28 09:42:08;;;;;;;13.80;2.80;;;21.70;99.90;;;;;;5000719;28;20034;-74
2023/09/28 09:44:34;;;;;;;9.25;1.70;;;21.80;99.90;;;;;;4999588;28;20045;-74
2023/09/28 09:47:02;;;;;;;10.80;2.13;;;21.90;99.90;;;;;;5014000;28;20090;-74
2023/09/28 09:49:28;;;;;;;14.63;2.42;;;22.00;99.90;;;;;;4997731;28;20029;-73
2023/09/28 09:51:59;;;;;;;10.93;1.98;;;22.20;99.90;;;;;;4999259;28;20034;-74
2023/09/28 09:54:26;;;;;;;13.32;2.17;;;22.30;99.90;;;;;;4981896;28;20037;-74
2023/09/28 09:56:53;;;;;;;13.55;2.45;;;22.30;99.90;;;;;;4981548;28;20048;-74
2023/09/28 09:59:22;;;;;;;12.10;2.17;;;22.20;99.90;;;;;;4982728;28;20034;-74
2023/09/28 10:01:51;;;;;;;12.57;2.00;;;22.20;99.90;;;;;;4999079;28;20080;-74
2023/09/28 10:04:20;;;;;;;18.08;3.03;;;22.20;99.90;;;;;;4982817;28;20030;-75
2023/09/28 10:06:56;;;;;;;15.10;2.38;;;22.40;99.90;;;;;;4982190;28;20045;-75
2023/09/28 10:09:23;;;;;;;10.07;1.85;;;22.60;99.90;;;;;;4950317;28;20042;-74
2023/09/28 10:11:50;;;;;;;11.15;1.67;;;22.90;99.90;;;;;;4982287;28;20440;-74
2023/09/28 10:14:19;;;;;;;13.02;2.33;;;23.10;99.90;;;;;;4998008;28;20026;-75
2023/09/28 10:16:50;;;;;;;17.27;2.50;;;23.40;99.90;;;;;;4980302;28;20050;-75
2023/09/28 10:19:20;;;;;;;11.38;2.20;;;23.70;99.90;;;;;;4983571;28;20029;-75
2023/09/28 10:21:47;;;;;;;15.77;3.40;;;23.90;99.90;;;;;;5001530;28;20033;-74
2023/09/28 10:24:15;;;;;;;14.68;2.90;;;24.30;99.90;;;;;;4999450;28;20495;-75
2023/09/28 10:26:51;;;;;;;12.57;3.08;;;24.30;99.90;;;;;;4981288;28;20478;-74
2023/09/28 10:29:32;;;;;;;13.90;2.83;;;24.40;99.90;;;;;;5000763;28;20030;-74
2023/09/28 10:31:58;;;;;;;11.50;2.40;;;24.40;99.90;;;;;;4998998;28;20041;-74
2023/09/28 10:34:27;;;;;;;13.30;2.95;;;24.60;99.90;;;;;;4999021;28;20072;-74
2023/09/28 10:37:18;;;;;;;11.57;2.25;;;24.60;99.90;;;;;;4997594;28;20057;-74
2023/09/28 10:39:51;;;;;;;10.60;1.90;;;24.80;99.90;;;;;;4999527;28;20049;-73
2023/09/28 10:42:17;;;;;;;17.80;2.97;;;24.70;99.90;;;;;;4998294;28;20026;-74
2023/09/28 10:45:05;;;;;;;12.30;3.28;;;24.70;99.90;;;;;;4984641;28;20056;-74
2023/09/28 10:47:33;;;;;;;12.25;2.50;;;24.70;99.90;;;;;;4999647;28;20045;-73
2023/09/28 10:50:01;;;;;;;11.38;2.47;;;24.60;99.90;;;;;;4982981;28;20052;-74
2023/09/28 10:52:28;;;;;;;14.07;3.08;;;24.60;99.90;;;;;;4998123;28;20392;-74
2023/09/28 10:54:55;;;;;;;12.60;2.63;;;24.40;99.90;;;;;;4992734;28;20049;-75
2023/09/28 10:57:31;;;;;;;11.38;2.35;;;24.60;99.90;;;;;;4977624;28;20040;-76
2023/09/28 11:00:12;;;;;;;11.43;2.53;;;24.60;99.90;;;;;;4999191;28;20784;-76
2023/09/28 11:02:40;;;;;;;15.32;3.38;;;24.40;99.90;;;;;;4979855;28;20044;-76
2023/09/28 11:05:08;;;;;;;13.30;3.05;;;24.10;99.90;;;;;;4980090;28;20041;-75
2023/09/28 11:07:35;;;;;;;12.90;2.42;;;23.80;99.90;;;;;;4979164;28;20038;-75
2023/09/28 11:10:02;;;;;;;12.43;2.20;;;23.80;99.90;;;;;;4996711;28;20040;-76
2023/09/28 11:12:29;;;;;;;11.40;1.98;;;24.10;99.90;;;;;;4995387;28;20034;-76
2023/09/28 11:14:58;;;;;;;10.75;2.10;;;24.30;99.90;;;;;;4977930;28;20045;-77
2023/09/28 11:17:24;;;;;;;12.82;2.25;;;24.30;99.90;;;;;;4994187;28;20507;-76
2023/09/28 11:19:51;;;;;;;10.35;2.10;;;24.30;99.90;;;;;;5008137;28;20044;-74
2023/09/28 11:22:18;;;;;;;11.63;2.40;;;24.40;99.90;;;;;;4980076;28;20414;-73
2023/09/28 11:24:45;;;;;;;16.08;3.40;;;24.30;99.90;;;;;;4980278;28;20057;-73
2023/09/28 11:27:12;;;;;;;9.68;2.08;;;24.30;99.90;;;;;;5012484;28;20420;-74
2023/09/28 11:29:40;;;;;;;13.43;2.45;;;24.20;99.90;;;;;;4997133;28;20029;-74
2023/09/28 11:32:07;;;;;;;8.48;2.13;;;24.20;99.90;;;;;;4980765;28;20041;-74
2023/09/28 11:34:38;;;;;;;9.15;2.25;;;24.00;99.90;;;;;;5013076;28;20029;-74
2023/09/28 11:37:09;;;;;;;12.43;2.75;;;23.90;99.90;;;;;;4995459;28;20073;-74
2023/09/28 11:39:38;;;;;;;8.38;1.48;;;23.80;99.90;;;;;;4998546;28;20481;-74
2023/09/28 11:42:07;;;;;;;10.85;2.35;;;23.80;99.90;;;;;;4996883;28;20368;-74
2023/09/28 11:44:34;;;;;;;13.93;2.65;;;23.90;99.90;;;;;;4995644;28;20041;-75
2023/09/28 11:47:01;;;;;;;11.90;2.55;;;24.30;99.90;;;;;;4994349;28;20042;-75
2023/09/28 11:49:28;;;;;;;13.15;2.47;;;24.40;99.90;;;;;;4996583;28;20491;-74
2023/09/28 11:51:55;;;;;;;13.65;2.40;;;24.60;99.90;;;;;;4996680;28;20121;-75
2023/09/28 11:54:22;;;;;;;9.88;2.25;;;25.00;99.90;;;;;;4979669;28;20049;-74
2023/09/28 11:56:49;;;;;;;14.38;3.08;;;25.20;99.90;;;;;;4979594;28;20045;-75
2023/09/28 11:59:36;;;;;;;11.27;2.42;;;25.40;99.90;;;;;;4997280;28;20058;-75
2023/09/28 12:02:03;;;;;;;12.50;2.67;;;25.50;99.90;;;;;;4997152;28;20038;-75
2023/09/28 12:04:29;;;;;;;12.07;1.90;;;25.20;99.90;;;;;;4997649;28;20041;-74
2023/09/28 12:06:56;;;;;;;11.30;2.05;;;25.50;99.90;;;;;;4999403;28;20042;-74
2023/09/28 12:09:22;;;;;;;11.52;2.30;;;26.00;99.90;;;;;;4997680;28;20026;-74
2023/09/28 12:11:49;;;;;;;8.98;2.47;;;26.00;99.90;;;;;;4997524;28;20659;-74
2023/09/28 12:14:16;;;;;;;10.77;2.35;;;25.70;99.90;;;;;;4980499;28;20480;-74
2023/09/28 12:16:43;;;;;;;10.48;2.42;;;25.30;99.90;;;;;;4981526;28;20121;-75
2023/09/28 12:19:09;;;;;;;10.10;2.17;;;25.00;99.90;;;;;;4995749;28;20048;-75
2023/09/28 12:21:36;;;;;;;13.65;2.90;;;24.90;99.90;;;;;;4996832;28;20044;-75
2023/09/28 12:24:03;;;;;;;9.70;2.05;;;24.80;99.90;;;;;;4979906;28;20030;-75
2023/09/28 12:26:30;;;;;;;9.45;2.05;;;24.80;99.90;;;;;;4984419;28;20034;-73
2023/09/28 12:28:56;;;;;;;12.65;2.03;;;24.70;99.90;;;;;;5002498;28;20037;-74
2023/09/28 12:31:23;;;;;;;14.40;2.55;;;24.40;99.90;;;;;;4984652;28;20042;-75
2023/09/28 12:34:09;;;;;;;10.65;2.08;;;24.30;99.90;;;;;;4987065;28;20452;-74
2023/09/28 12:36:35;;;;;;;7.50;1.50;;;24.10;99.90;;;;;;4998901;28;20386;-73
2023/09/28 12:39:02;;;;;;;8.73;1.77;;;24.00;99.90;;;;;;5001415;28;20045;-74
2023/09/28 12:41:28;;;;;;;13.15;2.63;;;24.00;99.90;;;;;;5000055;28;20034;-74
2023/09/28 12:43:55;;;;;;;9.25;2.03;;;24.00;99.90;;;;;;4997571;28;20385;-74
2023/09/28 12:46:21;;;;;;;8.68;1.83;;;24.00;99.90;;;;;;4997924;28;20034;-74
2023/09/28 12:48:48;;;;;;;12.38;2.80;;;24.00;99.90;;;;;;4998382;28;20516;-74
2023/09/28 12:51:14;;;;;;;10.38;2.55;;;24.30;99.90;;;;;;4996816;28;20049;-75